Airfield :







YOU CAN JOIN US ON...

 
LOGIN :

Register | Disclaimer

   EN    FR    IT 

 









Legend :    VFR   Marginal VFR   IFR   Intensive IFR   Very Intensive IFR
Visi :
Ceiling :
>= 8 km
>= 3000ft
5 to 8 km
1000 to 3000 ft
1500m to 5 km
500 to 1000 ft
800 to 1500m
200 to 500 ft
< 800m
< 200 ft
Symbols :   Thunderstorms  Fog  Heavy snow  Heavy precipitations  Wind > 20 kt






- Airport Elevation : 35 ft
- IATA code : YGR


CYGR - ëles-de-la-Madeleine

CURRENT METAR :
  • 232256Z 13017G26KT 15SM TSRA SCT050CB OVC075 10/07 A2991 RMK CB4AC4 OCNL LTGCG W SLP129

EXPIRED METARs :
  • 232200Z 13018G26KT 15SM FEW020 SCT180 OVC210 09/07 A2993 RMK SC1AC2CC5 LTNG DIST W SLP138
  • 232100Z 13021G28KT 20SM FEW020 SCT180 OVC200 10/06 A2998 RMK SC1AC2CC5 PRESFR SLP155
  • 232000Z 13020G26KT 20SM FEW020 SCT180 BKN210 10/06 A3002 RMK SC1AC2CC4 SLP168

TAF AMD TAF CYGR
Valid from the 23 at 22:00 until the 24 at 02:00 UTC


232258Z 2322/2402 14020G32KT P6SM -SHRA BKN025 OVC060
TEMPO 2322/2324 4SM TSRA BR OVC020CB
FM240000 15025G40KT P6SM -RA SCT006 OVC020
TEMPO 2400/2402 2SM RA BR OVC006 RMK NXT FCST WILL BE ISSUED AT 241045Z



MET'MAP, your aeronautical weather chart ! - Copyright ORBIFLY December 2007 - Disclaimer

ORBIFLY MET'MAP TEAM :

Programming & Development : Alexandra Zaïnal
Concept & Development : Baudouin d'Aumeries
Co-Development & Prog : Marc-Olivier Méhu
Technical & hardware support : Manuel Goepfert

Contact : metmap@orbifly.com




SOURCES & CREDITS :

   NOAA